sensor_id;sensor_type;location;lat;lon;timestamp;pressure;altitude;pressure_sealevel;temperature;humidity
74218;BME280;62579;47.288;18.646;2023-04-03T00:02:02;99854.09;;;5.14;72.52
74218;BME280;62579;47.288;18.646;2023-04-03T00:04:28;99841.72;;;5.08;72.00
74218;BME280;62579;47.288;18.646;2023-04-03T00:06:53;99849.06;;;5.07;72.27
74218;BME280;62579;47.288;18.646;2023-04-03T00:09:18;99849.22;;;5.04;72.85
74218;BME280;62579;47.288;18.646;2023-04-03T00:11:43;99854.72;;;5.09;72.37
74218;BME280;62579;47.288;18.646;2023-04-03T00:14:10;99852.09;;;5.00;72.51
74218;BME280;62579;47.288;18.646;2023-04-03T00:16:35;99848.03;;;5.05;72.04
74218;BME280;62579;47.288;18.646;2023-04-03T00:19:00;99853.41;;;5.05;72.02
74218;BME280;62579;47.288;18.646;2023-04-03T00:21:25;99870.50;;;5.02;72.15
74218;BME280;62579;47.288;18.646;2023-04-03T00:23:51;99853.16;;;4.94;73.13
74218;BME280;62579;47.288;18.646;2023-04-03T00:26:16;99854.19;;;4.96;72.28
74218;BME280;62579;47.288;18.646;2023-04-03T00:28:41;99855.69;;;4.97;73.06
74218;BME280;62579;47.288;18.646;2023-04-03T00:31:06;99860.47;;;5.02;72.70
74218;BME280;62579;47.288;18.646;2023-04-03T00:33:32;99859.31;;;4.94;72.47
74218;BME280;62579;47.288;18.646;2023-04-03T00:35:57;99859.75;;;4.93;72.99
74218;BME280;62579;47.288;18.646;2023-04-03T00:38:22;99863.66;;;4.92;72.46
74218;BME280;62579;47.288;18.646;2023-04-03T00:40:48;99862.88;;;5.00;72.64
74218;BME280;62579;47.288;18.646;2023-04-03T00:43:18;99866.06;;;4.90;72.51
74218;BME280;62579;47.288;18.646;2023-04-03T00:45:45;99865.19;;;4.83;72.68
74218;BME280;62579;47.288;18.646;2023-04-03T00:48:12;99869.97;;;4.89;72.60
74218;BME280;62579;47.288;18.646;2023-04-03T00:50:39;99866.81;;;4.90;72.61
74218;BME280;62579;47.288;18.646;2023-04-03T00:53:06;99860.50;;;4.93;72.51
74218;BME280;62579;47.288;18.646;2023-04-03T00:55:33;99869.97;;;4.89;72.73
74218;BME280;62579;47.288;18.646;2023-04-03T00:58:00;99865.50;;;4.85;72.87
74218;BME280;62579;47.288;18.646;2023-04-03T01:00:26;99869.69;;;4.87;72.81
74218;BME280;62579;47.288;18.646;2023-04-03T01:02:52;99871.00;;;4.91;72.48
74218;BME280;62579;47.288;18.646;2023-04-03T01:05:17;99864.69;;;4.94;72.82
74218;BME280;62579;47.288;18.646;2023-04-03T01:07:43;99868.47;;;4.87;72.46
74218;BME280;62579;47.288;18.646;2023-04-03T01:10:10;99866.38;;;4.92;72.97
74218;BME280;62579;47.288;18.646;2023-04-03T01:12:39;99859.34;;;4.85;72.82
74218;BME280;62579;47.288;18.646;2023-04-03T01:15:06;99871.41;;;4.99;72.45
74218;BME280;62579;47.288;18.646;2023-04-03T01:17:34;99862.56;;;4.98;72.40
74218;BME280;62579;47.288;18.646;2023-04-03T01:22:30;99870.87;;;4.85;72.19
74218;BME280;62579;47.288;18.646;2023-04-03T01:24:59;99867.44;;;4.85;72.02
74218;BME280;62579;47.288;18.646;2023-04-03T01:27:24;99872.53;;;4.83;72.76
74218;BME280;62579;47.288;18.646;2023-04-03T01:29:49;99876.00;;;4.74;72.84
74218;BME280;62579;47.288;18.646;2023-04-03T01:32:14;99878.28;;;4.76;73.26
74218;BME280;62579;47.288;18.646;2023-04-03T01:34:40;99878.37;;;4.81;72.46
74218;BME280;62579;47.288;18.646;2023-04-03T01:37:05;99878.44;;;4.72;73.06
74218;BME280;62579;47.288;18.646;2023-04-03T01:39:30;99873.78;;;4.73;73.17
74218;BME280;62579;47.288;18.646;2023-04-03T01:41:56;99876.47;;;4.73;73.38
74218;BME280;62579;47.288;18.646;2023-04-03T01:44:21;99870.78;;;4.71;73.09
74218;BME280;62579;47.288;18.646;2023-04-03T01:46:46;99867.47;;;4.76;73.77
74218;BME280;62579;47.288;18.646;2023-04-03T01:49:11;99870.34;;;4.72;73.39
74218;BME280;62579;47.288;18.646;2023-04-03T01:51:37;99876.00;;;4.74;73.16
74218;BME280;62579;47.288;18.646;2023-04-03T01:54:02;99876.91;;;4.71;72.87
74218;BME280;62579;47.288;18.646;2023-04-03T01:56:27;99870.81;;;4.62;73.54
74218;BME280;62579;47.288;18.646;2023-04-03T01:58:52;99874.72;;;4.61;73.55
74218;BME280;62579;47.288;18.646;2023-04-03T02:01:17;99883.06;;;4.72;73.52
74218;BME280;62579;47.288;18.646;2023-04-03T02:03:43;99881.00;;;4.67;73.53
74218;BME280;62579;47.288;18.646;2023-04-03T02:06:08;99878.16;;;4.61;74.02
74218;BME280;62579;47.288;18.646;2023-04-03T02:08:33;99879.19;;;4.64;73.79
74218;BME280;62579;47.288;18.646;2023-04-03T02:10:58;99885.63;;;4.57;73.50
74218;BME280;62579;47.288;18.646;2023-04-03T02:13:24;99887.28;;;4.64;73.58
74218;BME280;62579;47.288;18.646;2023-04-03T02:15:49;99887.44;;;4.60;73.72
74218;BME280;62579;47.288;18.646;2023-04-03T02:18:14;99894.00;;;4.68;73.63
74218;BME280;62579;47.288;18.646;2023-04-03T02:20:40;99901.34;;;4.68;73.34
74218;BME280;62579;47.288;18.646;2023-04-03T02:23:05;99889.34;;;4.69;73.79
74218;BME280;62579;47.288;18.646;2023-04-03T02:25:32;99891.34;;;4.59;73.39
74218;BME280;62579;47.288;18.646;2023-04-03T02:27:57;99888.03;;;4.64;73.43
74218;BME280;62579;47.288;18.646;2023-04-03T02:30:22;99893.31;;;4.50;74.15
74218;BME280;62579;47.288;18.646;2023-04-03T02:32:48;99895.09;;;4.53;74.65
74218;BME280;62579;47.288;18.646;2023-04-03T02:35:13;99889.41;;;4.51;73.98
74218;BME280;62579;47.288;18.646;2023-04-03T02:37:38;99889.84;;;4.49;74.21
74218;BME280;62579;47.288;18.646;2023-04-03T02:40:04;99896.41;;;4.57;74.25
74218;BME280;62579;47.288;18.646;2023-04-03T02:42:29;99902.59;;;4.49;74.80
74218;BME280;62579;47.288;18.646;2023-04-03T02:44:54;99897.03;;;4.52;74.26
74218;BME280;62579;47.288;18.646;2023-04-03T02:47:20;99894.34;;;4.52;74.77
74218;BME280;62579;47.288;18.646;2023-04-03T02:49:45;99897.94;;;4.49;74.94
74218;BME280;62579;47.288;18.646;2023-04-03T02:52:11;99889.13;;;4.49;75.35
74218;BME280;62579;47.288;18.646;2023-04-03T02:54:36;99900.63;;;4.49;75.37
74218;BME280;62579;47.288;18.646;2023-04-03T02:57:02;99900.81;;;4.46;75.63
74218;BME280;62579;47.288;18.646;2023-04-03T02:59:27;99894.53;;;4.40;75.59
74218;BME280;62579;47.288;18.646;2023-04-03T03:01:54;99896.19;;;4.37;76.01
74218;BME280;62579;47.288;18.646;2023-04-03T03:04:20;99900.97;;;4.33;75.98
74218;BME280;62579;47.288;18.646;2023-04-03T03:06:46;99899.97;;;4.21;76.70
74218;BME280;62579;47.288;18.646;2023-04-03T03:09:12;99901.75;;;4.24;76.71
74218;BME280;62579;47.288;18.646;2023-04-03T03:11:38;99892.34;;;4.11;77.48
74218;BME280;62579;47.288;18.646;2023-04-03T03:14:03;99895.03;;;4.11;77.30
74218;BME280;62579;47.288;18.646;2023-04-03T03:16:28;99894.87;;;4.05;77.55
74218;BME280;62579;47.288;18.646;2023-04-03T03:18:53;99892.78;;;4.00;77.91
74218;BME280;62579;47.288;18.646;2023-04-03T03:21:19;99889.03;;;4.07;77.74
74218;BME280;62579;47.288;18.646;2023-04-03T03:23:44;99884.13;;;4.05;77.80
74218;BME280;62579;47.288;18.646;2023-04-03T03:26:10;99889.78;;;4.07;77.30
74218;BME280;62579;47.288;18.646;2023-04-03T03:28:35;99893.53;;;4.01;77.54
74218;BME280;62579;47.288;18.646;2023-04-03T03:31:01;99893.09;;;4.11;77.55
74218;BME280;62579;47.288;18.646;2023-04-03T03:33:26;99901.31;;;4.08;77.58
74218;BME280;62579;47.288;18.646;2023-04-03T03:35:52;99888.44;;;4.03;77.43
74218;BME280;62579;47.288;18.646;2023-04-03T03:38:17;99898.00;;;4.04;77.31
74218;BME280;62579;47.288;18.646;2023-04-03T03:40:42;99895.31;;;4.04;77.68
74218;BME280;62579;47.288;18.646;2023-04-03T03:43:08;99896.38;;;3.97;77.61
74218;BME280;62579;47.288;18.646;2023-04-03T03:45:33;99893.09;;;4.02;77.85
74218;BME280;62579;47.288;18.646;2023-04-03T03:47:58;99881.88;;;3.95;77.42
74218;BME280;62579;47.288;18.646;2023-04-03T03:50:24;99898.34;;;4.06;77.13
74218;BME280;62579;47.288;18.646;2023-04-03T03:52:49;99891.44;;;3.96;78.02
74218;BME280;62579;47.288;18.646;2023-04-03T03:55:17;99891.44;;;4.05;78.11
74218;BME280;62579;47.288;18.646;2023-04-03T03:57:42;99899.22;;;3.94;77.42
74218;BME280;62579;47.288;18.646;2023-04-03T04:00:07;99893.06;;;3.93;77.59
74218;BME280;62579;47.288;18.646;2023-04-03T04:02:33;99892.78;;;3.91;77.72
74218;BME280;62579;47.288;18.646;2023-04-03T04:04:59;99898.78;;;3.86;77.15
74218;BME280;62579;47.288;18.646;2023-04-03T04:07:24;99882.34;;;3.84;77.51
74218;BME280;62579;47.288;18.646;2023-04-03T04:09:49;99898.62;;;3.81;77.37
74218;BME280;62579;47.288;18.646;2023-04-03T04:12:14;99896.97;;;3.74;77.84
74218;BME280;62579;47.288;18.646;2023-04-03T04:14:40;99898.62;;;3.81;77.68
74218;BME280;62579;47.288;18.646;2023-04-03T04:17:06;99899.03;;;3.61;78.65
74218;BME280;62579;47.288;18.646;2023-04-03T04:19:33;99903.09;;;3.56;78.78
74218;BME280;62579;47.288;18.646;2023-04-03T04:21:58;99907.72;;;3.56;78.85
74218;BME280;62579;47.288;18.646;2023-04-03T04:24:23;99908.47;;;3.56;78.79
74218;BME280;62579;47.288;18.646;2023-04-03T04:26:49;99904.09;;;3.50;78.75
74218;BME280;62579;47.288;18.646;2023-04-03T04:29:14;99897.69;;;3.47;78.90
74218;BME280;62579;47.288;18.646;2023-04-03T04:31:39;99902.34;;;3.47;78.96
74218;BME280;62579;47.288;18.646;2023-04-03T04:34:04;99908.16;;;3.54;79.01
74218;BME280;62579;47.288;18.646;2023-04-03T04:36:30;99903.94;;;3.44;79.36
74218;BME280;62579;47.288;18.646;2023-04-03T04:38:55;99915.00;;;3.37;79.39
74218;BME280;62579;47.288;18.646;2023-04-03T04:41:20;99917.66;;;3.28;80.10
74218;BME280;62579;47.288;18.646;2023-04-03T04:43:48;99910.94;;;3.24;80.39
74218;BME280;62579;47.288;18.646;2023-04-03T04:46:14;99927.53;;;3.22;80.42
74218;BME280;62579;47.288;18.646;2023-04-03T04:48:39;99918.56;;;3.25;80.45
74218;BME280;62579;47.288;18.646;2023-04-03T04:51:05;99930.81;;;3.26;80.28
74218;BME280;62579;47.288;18.646;2023-04-03T04:53:30;99930.63;;;3.12;80.86
74218;BME280;62579;47.288;18.646;2023-04-03T04:55:56;99932.44;;;3.15;80.97
74218;BME280;62579;47.288;18.646;2023-04-03T04:58:21;99934.09;;;3.21;80.55
74218;BME280;62579;47.288;18.646;2023-04-03T05:00:47;99933.63;;;3.14;80.88
74218;BME280;62579;47.288;18.646;2023-04-03T05:03:13;99937.81;;;3.15;80.89
74218;BME280;62579;47.288;18.646;2023-04-03T05:05:39;99936.19;;;3.17;80.69
74218;BME280;62579;47.288;18.646;2023-04-03T05:08:04;99938.53;;;3.15;81.01
74218;BME280;62579;47.288;18.646;2023-04-03T05:10:30;99940.81;;;3.17;81.02
74218;BME280;62579;47.288;18.646;2023-04-03T05:12:56;99946.19;;;3.17;81.16
74218;BME280;62579;47.288;18.646;2023-04-03T05:15:21;99941.97;;;3.16;81.37
74218;BME280;62579;47.288;18.646;2023-04-03T05:17:46;99938.53;;;3.15;81.09
74218;BME280;62579;47.288;18.646;2023-04-03T05:20:12;99937.25;;;3.29;80.90
74218;BME280;62579;47.288;18.646;2023-04-03T05:22:37;99944.09;;;3.21;81.18
74218;BME280;62579;47.288;18.646;2023-04-03T05:25:02;99944.84;;;3.21;81.10
74218;BME280;62579;47.288;18.646;2023-04-03T05:27:28;99948.44;;;3.27;80.91
74218;BME280;62579;47.288;18.646;2023-04-03T05:29:53;99947.91;;;3.41;80.48
74218;BME280;62579;47.288;18.646;2023-04-03T05:32:18;99957.88;;;3.32;80.40
74218;BME280;62579;47.288;18.646;2023-04-03T05:34:44;99961.31;;;3.32;80.65
74218;BME280;62579;47.288;18.646;2023-04-03T05:37:09;99953.53;;;3.34;80.50
74218;BME280;62579;47.288;18.646;2023-04-03T05:39:35;99948.16;;;3.34;80.44
74218;BME280;62579;47.288;18.646;2023-04-03T05:42:00;99957.28;;;3.37;80.13
74218;BME280;62579;47.288;18.646;2023-04-03T05:44:25;99946.84;;;3.39;80.33
74218;BME280;62579;47.288;18.646;2023-04-03T05:46:51;99960.59;;;3.41;79.82
74218;BME280;62579;47.288;18.646;2023-04-03T05:49:16;99955.22;;;3.50;79.73
74218;BME280;62579;47.288;18.646;2023-04-03T05:51:41;99958.41;;;3.57;79.60
74218;BME280;62579;47.288;18.646;2023-04-03T05:54:11;99960.50;;;3.62;79.36
74218;BME280;62579;47.288;18.646;2023-04-03T05:56:37;99951.38;;;3.69;79.07
74218;BME280;62579;47.288;18.646;2023-04-03T05:59:02;99950.38;;;3.94;78.50
74218;BME280;62579;47.288;18.646;2023-04-03T06:01:28;99944.69;;;4.28;77.20
74218;BME280;62579;47.288;18.646;2023-04-03T06:03:53;99949.16;;;4.40;76.63
74218;BME280;62579;47.288;18.646;2023-04-03T06:06:19;99941.94;;;4.55;75.73
74218;BME280;62579;47.288;18.646;2023-04-03T06:08:44;99951.06;;;4.67;75.13
74218;BME280;62579;47.288;18.646;2023-04-03T06:11:11;99952.69;;;4.73;74.61
74218;BME280;62579;47.288;18.646;2023-04-03T06:13:36;99944.44;;;4.77;75.17
74218;BME280;62579;47.288;18.646;2023-04-03T06:16:02;99939.78;;;4.87;75.40
74218;BME280;62579;47.288;18.646;2023-04-03T06:18:27;99936.75;;;5.03;74.09
74218;BME280;62579;47.288;18.646;2023-04-03T06:20:52;99955.00;;;5.08;73.30
74218;BME280;62579;47.288;18.646;2023-04-03T06:23:17;99942.25;;;5.08;73.39
74218;BME280;62579;47.288;18.646;2023-04-03T06:25:43;99964.06;;;5.19;73.26
74218;BME280;62579;47.288;18.646;2023-04-03T06:28:08;99949.63;;;5.31;73.04
74218;BME280;62579;47.288;18.646;2023-04-03T06:30:38;99954.28;;;5.31;72.47
74218;BME280;62579;47.288;18.646;2023-04-03T06:33:03;99956.56;;;5.56;72.87
74218;BME280;62579;47.288;18.646;2023-04-03T06:35:28;99952.47;;;5.37;71.39
74218;BME280;62579;47.288;18.646;2023-04-03T06:37:55;99960.19;;;5.53;71.08
74218;BME280;62579;47.288;18.646;2023-04-03T06:40:24;99949.25;;;5.71;71.19
74218;BME280;62579;47.288;18.646;2023-04-03T06:42:50;99967.25;;;5.74;71.05
74218;BME280;62579;47.288;18.646;2023-04-03T06:45:15;99958.72;;;5.99;70.61
74218;BME280;62579;47.288;18.646;2023-04-03T06:47:41;99961.09;;;5.97;69.41
74218;BME280;62579;47.288;18.646;2023-04-03T06:50:06;99951.06;;;5.98;70.01
74218;BME280;62579;47.288;18.646;2023-04-03T06:52:32;99952.03;;;6.10;68.40
74218;BME280;62579;47.288;18.646;2023-04-03T06:54:57;99960.78;;;6.19;68.03
74218;BME280;62579;47.288;18.646;2023-04-03T06:57:24;99957.00;;;6.26;66.99
74218;BME280;62579;47.288;18.646;2023-04-03T06:59:50;99964.84;;;6.38;67.40
74218;BME280;62579;47.288;18.646;2023-04-03T07:02:15;99957.56;;;6.44;66.47
74218;BME280;62579;47.288;18.646;2023-04-03T07:04:40;99960.56;;;6.46;66.69
74218;BME280;62579;47.288;18.646;2023-04-03T07:07:05;99972.31;;;6.58;66.25
74218;BME280;62579;47.288;18.646;2023-04-03T07:09:33;99959.47;;;6.53;64.89
74218;BME280;62579;47.288;18.646;2023-04-03T07:11:58;99976.25;;;6.72;66.10
74218;BME280;62579;47.288;18.646;2023-04-03T07:14:23;99975.97;;;6.84;65.46
74218;BME280;62579;47.288;18.646;2023-04-03T07:16:48;99987.53;;;6.85;63.99
74218;BME280;62579;47.288;18.646;2023-04-03T07:19:13;99971.37;;;6.90;62.09
74218;BME280;62579;47.288;18.646;2023-04-03T07:21:39;99983.97;;;6.93;60.86
74218;BME280;62579;47.288;18.646;2023-04-03T07:24:07;99970.16;;;7.06;61.44
74218;BME280;62579;47.288;18.646;2023-04-03T07:26:33;99973.62;;;7.06;61.38
74218;BME280;62579;47.288;18.646;2023-04-03T07:28:58;99974.06;;;7.19;60.78
74218;BME280;62579;47.288;18.646;2023-04-03T07:31:24;99976.69;;;7.14;61.56
74218;BME280;62579;47.288;18.646;2023-04-03T07:33:50;99984.03;;;7.28;61.53
74218;BME280;62579;47.288;18.646;2023-04-03T07:36:17;99980.06;;;7.09;60.57
74218;BME280;62579;47.288;18.646;2023-04-03T07:38:42;99975.84;;;7.22;61.60
74218;BME280;62579;47.288;18.646;2023-04-03T07:41:11;99970.75;;;7.45;61.01
74218;BME280;62579;47.288;18.646;2023-04-03T07:43:37;99977.53;;;7.55;59.72
74218;BME280;62579;47.288;18.646;2023-04-03T07:46:04;99986.00;;;7.62;60.59
74218;BME280;62579;47.288;18.646;2023-04-03T07:48:29;99988.00;;;7.82;60.43
74218;BME280;62579;47.288;18.646;2023-04-03T07:50:58;99985.41;;;7.93;58.00
74218;BME280;62579;47.288;18.646;2023-04-03T07:53:23;99987.16;;;8.16;57.10
74218;BME280;62579;47.288;18.646;2023-04-03T07:55:49;99991.56;;;7.94;56.78
74218;BME280;62579;47.288;18.646;2023-04-03T07:58:17;99997.00;;;7.59;57.57
74218;BME280;62579;47.288;18.646;2023-04-03T08:00:43;99991.22;;;7.66;57.01
74218;BME280;62579;47.288;18.646;2023-04-03T08:03:09;99990.03;;;7.87;56.90
74218;BME280;62579;47.288;18.646;2023-04-03T08:05:41;99980.94;;;7.90;57.59
74218;BME280;62579;47.288;18.646;2023-04-03T08:08:07;99978.69;;;8.09;56.80
74218;BME280;62579;47.288;18.646;2023-04-03T08:10:33;99993.19;;;8.26;56.91
74218;BME280;62579;47.288;18.646;2023-04-03T08:12:59;99977.66;;;8.47;57.11
74218;BME280;62579;47.288;18.646;2023-04-03T08:15:24;99991.75;;;8.51;56.14
74218;BME280;62579;47.288;18.646;2023-04-03T08:17:50;100000.78;;;8.42;56.12
74218;BME280;62579;47.288;18.646;2023-04-03T08:20:16;99996.06;;;8.63;58.21
74218;BME280;62579;47.288;18.646;2023-04-03T08:22:41;99986.50;;;8.67;56.15
74218;BME280;62579;47.288;18.646;2023-04-03T08:25:06;99990.09;;;8.59;54.63
74218;BME280;62579;47.288;18.646;2023-04-03T08:27:32;99993.63;;;8.39;55.41
74218;BME280;62579;47.288;18.646;2023-04-03T08:29:57;99997.53;;;8.38;55.39
74218;BME280;62579;47.288;18.646;2023-04-03T08:32:23;99986.25;;;8.45;55.39
74218;BME280;62579;47.288;18.646;2023-04-03T08:34:48;99995.34;;;8.42;56.44
74218;BME280;62579;47.288;18.646;2023-04-03T08:37:13;99988.91;;;8.39;56.02
74218;BME280;62579;47.288;18.646;2023-04-03T08:39:38;99990.84;;;8.33;55.88
74218;BME280;62579;47.288;18.646;2023-04-03T08:42:05;99999.13;;;8.50;55.82
74218;BME280;62579;47.288;18.646;2023-04-03T08:44:39;100001.91;;;8.56;55.64
74218;BME280;62579;47.288;18.646;2023-04-03T08:47:14;100001.28;;;8.66;55.08
74218;BME280;62579;47.288;18.646;2023-04-03T08:49:47;100000.81;;;8.68;54.40
74218;BME280;62579;47.288;18.646;2023-04-03T08:52:20;100004.78;;;8.72;54.89
74218;BME280;62579;47.288;18.646;2023-04-03T08:54:50;100000.25;;;8.64;54.34
74218;BME280;62579;47.288;18.646;2023-04-03T08:57:16;100012.22;;;8.77;54.61
74218;BME280;62579;47.288;18.646;2023-04-03T08:59:42;99999.25;;;8.61;54.35
74218;BME280;62579;47.288;18.646;2023-04-03T09:05:05;100008.56;;;8.55;53.54
74218;BME280;62579;47.288;18.646;2023-04-03T09:07:37;100007.13;;;8.59;55.75
74218;BME280;62579;47.288;18.646;2023-04-03T09:10:04;99996.25;;;8.79;55.66
74218;BME280;62579;47.288;18.646;2023-04-03T09:12:34;100017.19;;;8.79;54.71
74218;BME280;62579;47.288;18.646;2023-04-03T09:15:09;100007.25;;;8.70;53.74
74218;BME280;62579;47.288;18.646;2023-04-03T09:22:31;100017.72;;;8.83;54.44
74218;BME280;62579;47.288;18.646;2023-04-03T09:27:22;100008.62;;;9.17;53.56
74218;BME280;62579;47.288;18.646;2023-04-03T09:29:48;100021.53;;;9.22;52.58
74218;BME280;62579;47.288;18.646;2023-04-03T09:32:18;100006.22;;;9.25;53.59
74218;BME280;62579;47.288;18.646;2023-04-03T09:34:45;99995.53;;;9.52;52.83
74218;BME280;62579;47.288;18.646;2023-04-03T09:37:12;100021.94;;;9.46;52.12
74218;BME280;62579;47.288;18.646;2023-04-03T09:39:57;100004.69;;;9.55;51.80
74218;BME280;62579;47.288;18.646;2023-04-03T09:42:23;100020.41;;;9.40;52.14
74218;BME280;62579;47.288;18.646;2023-04-03T09:44:56;100004.78;;;9.29;51.42
74218;BME280;62579;47.288;18.646;2023-04-03T09:49:50;100015.44;;;9.33;52.76
74218;BME280;62579;47.288;18.646;2023-04-03T09:52:18;100015.81;;;9.51;51.05
74218;BME280;62579;47.288;18.646;2023-04-03T09:54:43;100014.97;;;9.40;50.42
74218;BME280;62579;47.288;18.646;2023-04-03T09:57:12;100015.22;;;9.42;50.29
74218;BME280;62579;47.288;18.646;2023-04-03T09:59:55;100017.81;;;9.56;49.77
74218;BME280;62579;47.288;18.646;2023-04-03T10:02:28;100010.69;;;9.64;51.02
74218;BME280;62579;47.288;18.646;2023-04-03T10:04:55;100013.41;;;9.64;49.52
74218;BME280;62579;47.288;18.646;2023-04-03T10:09:56;100005.03;;;9.68;48.89
74218;BME280;62579;47.288;18.646;2023-04-03T10:12:22;100007.31;;;9.81;49.73
74218;BME280;62579;47.288;18.646;2023-04-03T10:14:55;100002.78;;;10.14;50.40
74218;BME280;62579;47.288;18.646;2023-04-03T10:30:20;100002.25;;;10.05;47.45
74218;BME280;62579;47.288;18.646;2023-04-03T10:40:24;99998.88;;;10.27;47.02
74218;BME280;62579;47.288;18.646;2023-04-03T10:48:24;99985.28;;;10.27;47.26
74218;BME280;62579;47.288;18.646;2023-04-03T10:53:34;99989.22;;;10.25;47.44
74218;BME280;62579;47.288;18.646;2023-04-03T10:56:16;99979.13;;;10.37;46.44
74218;BME280;62579;47.288;18.646;2023-04-03T10:58:45;99974.41;;;10.27;47.17
74218;BME280;62579;47.288;18.646;2023-04-03T11:01:15;99983.53;;;10.18;47.91
74218;BME280;62579;47.288;18.646;2023-04-03T11:03:45;99977.34;;;10.23;48.95
74218;BME280;62579;47.288;18.646;2023-04-03T11:06:12;99978.16;;;10.40;47.48
74218;BME280;62579;47.288;18.646;2023-04-03T11:08:50;99974.66;;;10.29;46.44
74218;BME280;62579;47.288;18.646;2023-04-03T11:11:17;99979.75;;;10.10;45.91
74218;BME280;62579;47.288;18.646;2023-04-03T11:16:27;99970.84;;;10.04;48.19
74218;BME280;62579;47.288;18.646;2023-04-03T11:21:23;99963.25;;;10.13;48.23
74218;BME280;62579;47.288;18.646;2023-04-03T11:23:51;99964.28;;;9.74;48.04
74218;BME280;62579;47.288;18.646;2023-04-03T11:26:21;99959.38;;;9.78;47.76
74218;BME280;62579;47.288;18.646;2023-04-03T11:28:52;99962.69;;;10.09;47.82
74218;BME280;62579;47.288;18.646;2023-04-03T11:34:05;99949.91;;;10.21;49.32
74218;BME280;62579;47.288;18.646;2023-04-03T11:36:33;99948.69;;;10.27;47.89
74218;BME280;62579;47.288;18.646;2023-04-03T11:41:47;99941.03;;;10.26;47.97
74218;BME280;62579;47.288;18.646;2023-04-03T11:47:11;99942.81;;;10.57;45.97
74218;BME280;62579;47.288;18.646;2023-04-03T11:49:57;99944.53;;;10.60;45.84
74218;BME280;62579;47.288;18.646;2023-04-03T12:05:47;99936.56;;;10.29;45.82
74218;BME280;62579;47.288;18.646;2023-04-03T12:08:23;99948.94;;;10.30;46.44
74218;BME280;62579;47.288;18.646;2023-04-03T12:13:33;99947.47;;;10.34;45.62
74218;BME280;62579;47.288;18.646;2023-04-03T12:15:58;99940.53;;;10.33;45.92
74218;BME280;62579;47.288;18.646;2023-04-03T12:21:02;99930.19;;;10.70;44.83
74218;BME280;62579;47.288;18.646;2023-04-03T12:23:32;99933.66;;;10.65;45.93
74218;BME280;62579;47.288;18.646;2023-04-03T12:26:41;99929.72;;;10.77;45.90
74218;BME280;62579;47.288;18.646;2023-04-03T12:28:46;99936.62;;;10.90;44.06
74218;BME280;62579;47.288;18.646;2023-04-03T12:31:13;99929.19;;;10.68;45.35
74218;BME280;62579;47.288;18.646;2023-04-03T12:36:39;99943.06;;;10.86;44.88
74218;BME280;62579;47.288;18.646;2023-04-03T12:44:24;99927.47;;;10.59;42.90
74218;BME280;62579;47.288;18.646;2023-04-03T12:46:52;99922.00;;;10.70;44.21
74218;BME280;62579;47.288;18.646;2023-04-03T12:49:22;99924.75;;;10.54;45.44
74218;BME280;62579;47.288;18.646;2023-04-03T12:51:49;99917.06;;;10.58;46.02
74218;BME280;62579;47.288;18.646;2023-04-03T12:54:19;99926.97;;;10.55;46.03
74218;BME280;62579;47.288;18.646;2023-04-03T12:56:46;99915.59;;;10.51;45.80
74218;BME280;62579;47.288;18.646;2023-04-03T12:59:22;99908.66;;;10.45;46.66
74218;BME280;62579;47.288;18.646;2023-04-03T13:01:57;99917.31;;;10.54;46.34
74218;BME280;62579;47.288;18.646;2023-04-03T13:04:23;99910.41;;;10.64;45.29
74218;BME280;62579;47.288;18.646;2023-04-03T13:06:49;99907.88;;;10.22;45.34
74218;BME280;62579;47.288;18.646;2023-04-03T13:11:51;99902.00;;;10.51;46.08
74218;BME280;62579;47.288;18.646;2023-04-03T13:14:19;99902.00;;;10.57;44.96
74218;BME280;62579;47.288;18.646;2023-04-03T13:17:06;99905.22;;;10.66;45.92
74218;BME280;62579;47.288;18.646;2023-04-03T13:19:34;99884.91;;;10.51;44.55
74218;BME280;62579;47.288;18.646;2023-04-03T13:22:07;99895.53;;;10.65;45.16
74218;BME280;62579;47.288;18.646;2023-04-03T13:24:37;99884.41;;;10.41;45.08
74218;BME280;62579;47.288;18.646;2023-04-03T13:27:03;99884.88;;;10.95;47.26
74218;BME280;62579;47.288;18.646;2023-04-03T13:29:30;99884.88;;;11.01;45.95
74218;BME280;62579;47.288;18.646;2023-04-03T13:31:57;99903.94;;;10.90;44.50
74218;BME280;62579;47.288;18.646;2023-04-03T13:34:24;99905.22;;;10.77;44.22
74218;BME280;62579;47.288;18.646;2023-04-03T13:36:55;99901.72;;;10.44;44.38
74218;BME280;62579;47.288;18.646;2023-04-03T13:39:22;99899.25;;;10.35;44.97
74218;BME280;62579;47.288;18.646;2023-04-03T13:41:48;99895.56;;;10.38;46.24
74218;BME280;62579;47.288;18.646;2023-04-03T13:46:46;99888.41;;;10.57;44.96
74218;BME280;62579;47.288;18.646;2023-04-03T13:51:56;99890.09;;;10.27;46.78
74218;BME280;62579;47.288;18.646;2023-04-03T13:54:25;99881.94;;;10.27;45.07
74218;BME280;62579;47.288;18.646;2023-04-03T13:56:54;99895.53;;;10.27;46.36
74218;BME280;62579;47.288;18.646;2023-04-03T13:59:33;99890.19;;;9.79;46.21
74218;BME280;62579;47.288;18.646;2023-04-03T14:04:26;99887.13;;;9.49;48.49
74218;BME280;62579;47.288;18.646;2023-04-03T14:06:52;99884.16;;;9.52;47.43
74218;BME280;62579;47.288;18.646;2023-04-03T14:09:18;99896.69;;;9.39;47.31
74218;BME280;62579;47.288;18.646;2023-04-03T14:11:44;99893.44;;;9.29;47.38
74218;BME280;62579;47.288;18.646;2023-04-03T14:14:15;99879.97;;;9.09;47.38
74218;BME280;62579;47.288;18.646;2023-04-03T14:16:42;99894.94;;;8.93;47.92
74218;BME280;62579;47.288;18.646;2023-04-03T14:19:13;99889.00;;;8.89;47.62
74218;BME280;62579;47.288;18.646;2023-04-03T14:21:41;99880.88;;;8.95;48.82
74218;BME280;62579;47.288;18.646;2023-04-03T14:24:06;99882.91;;;9.00;47.65
74218;BME280;62579;47.288;18.646;2023-04-03T14:26:31;99878.13;;;8.89;48.37
74218;BME280;62579;47.288;18.646;2023-04-03T14:28:57;99881.03;;;8.80;48.05
74218;BME280;62579;47.288;18.646;2023-04-03T14:31:22;99885.41;;;8.72;48.22
74218;BME280;62579;47.288;18.646;2023-04-03T14:33:48;99891.38;;;8.76;47.88